createdAt,value
2023-11-07T00:01:29.721Z,3.80
2023-11-07T00:03:57.762Z,3.70
2023-11-07T00:06:25.120Z,3.60
2023-11-07T00:08:52.758Z,3.60
2023-11-07T00:11:20.419Z,3.30
2023-11-07T00:13:49.453Z,3.50
2023-11-07T00:16:16.689Z,3.40
2023-11-07T00:18:43.920Z,3.20
2023-11-07T00:21:10.999Z,3.30
2023-11-07T00:23:39.092Z,3.30
2023-11-07T00:26:06.428Z,3.40
2023-11-07T00:28:33.296Z,3.50
2023-11-07T00:31:00.156Z,3.40
2023-11-07T00:33:27.173Z,3.40
2023-11-07T00:35:54.160Z,3.40
2023-11-07T00:38:21.047Z,3.40
2023-11-07T00:40:48.878Z,3.30
2023-11-07T00:43:15.805Z,3.30
2023-11-07T00:45:42.699Z,3.00
2023-11-07T00:48:09.854Z,3.20
2023-11-07T00:50:37.807Z,3.20
2023-11-07T00:53:04.957Z,2.90
2023-11-07T00:55:32.012Z,3.20
2023-11-07T00:57:58.898Z,3.20
2023-11-07T01:00:25.747Z,3.10
2023-11-07T01:02:52.728Z,3.10
2023-11-07T01:05:19.988Z,3.10
2023-11-07T01:07:46.888Z,3.20
2023-11-07T01:10:14.833Z,3.10
2023-11-07T01:12:42.976Z,3.00
2023-11-07T01:15:10.249Z,3.10
2023-11-07T01:17:38.346Z,2.90
2023-11-07T01:20:07.683Z,2.80
2023-11-07T01:22:34.730Z,3.10
2023-11-07T01:25:01.543Z,3.20
2023-11-07T01:27:28.384Z,3.20
2023-11-07T01:29:55.244Z,3.10
2023-11-07T01:32:22.460Z,3.20
2023-11-07T01:34:49.351Z,3.30
2023-11-07T01:37:16.397Z,3.10
2023-11-07T01:39:43.230Z,3.00
2023-11-07T01:42:10.182Z,3.10
2023-11-07T01:44:40.053Z,3.00
2023-11-07T01:47:06.949Z,2.90
2023-11-07T01:49:34.534Z,3.00
2023-11-07T01:52:01.436Z,2.90
2023-11-07T01:54:29.064Z,3.00
2023-11-07T01:56:56.005Z,3.00
2023-11-07T01:59:24.763Z,2.80
2023-11-07T02:01:54.014Z,2.50
2023-11-07T02:04:22.568Z,2.60
2023-11-07T02:06:49.583Z,2.60
2023-11-07T02:09:16.442Z,2.60
2023-11-07T02:11:45.041Z,2.50
2023-11-07T02:14:37.938Z,2.60
2023-11-07T02:17:05.454Z,2.70
2023-11-07T02:19:33.224Z,2.80
2023-11-07T02:22:01.264Z,2.80
2023-11-07T02:24:31.540Z,2.90
2023-11-07T02:26:59.335Z,2.90
2023-11-07T02:29:26.370Z,2.60
2023-11-07T02:31:53.491Z,2.80
2023-11-07T02:34:20.521Z,2.90
2023-11-07T02:36:47.587Z,2.60
2023-11-07T02:39:14.813Z,2.60
2023-11-07T02:41:42.993Z,2.60
2023-11-07T02:44:12.484Z,2.70
2023-11-07T02:46:39.413Z,2.80
2023-11-07T02:49:06.802Z,2.60
2023-11-07T02:51:34.070Z,2.70
2023-11-07T02:54:01.232Z,2.70
2023-11-07T02:56:29.205Z,2.60
2023-11-07T02:58:56.659Z,2.40
2023-11-07T03:01:23.732Z,2.40
2023-11-07T03:03:51.544Z,2.50
2023-11-07T03:06:19.251Z,2.70
2023-11-07T03:08:46.209Z,2.70
2023-11-07T03:11:13.166Z,2.40
2023-11-07T03:13:40.859Z,2.40
2023-11-07T03:16:08.338Z,2.40
2023-11-07T03:18:35.258Z,2.60
2023-11-07T03:21:02.890Z,2.50
2023-11-07T03:23:29.731Z,2.60
2023-11-07T03:25:56.598Z,2.80
2023-11-07T03:28:23.404Z,2.90
2023-11-07T03:30:50.481Z,3.00
2023-11-07T03:33:20.856Z,2.50
2023-11-07T03:35:48.276Z,2.30
2023-11-07T03:38:15.524Z,2.60
2023-11-07T03:40:42.378Z,2.70
2023-11-07T03:43:09.700Z,2.60
2023-11-07T03:45:36.526Z,2.50
2023-11-07T03:48:03.615Z,2.30
2023-11-07T03:50:31.719Z,2.30
2023-11-07T03:52:58.656Z,2.40
2023-11-07T03:55:25.588Z,2.50
2023-11-07T03:57:52.396Z,2.60
2023-11-07T04:00:20.742Z,2.60
2023-11-07T04:02:48.202Z,2.20
2023-11-07T04:05:15.326Z,2.30
2023-11-07T04:07:42.351Z,2.60
2023-11-07T04:10:09.773Z,2.70
2023-11-07T04:12:37.154Z,2.80
2023-11-07T04:15:07.617Z,2.90
2023-11-07T04:17:35.349Z,3.10
2023-11-07T04:20:04.042Z,2.70
2023-11-07T04:22:30.974Z,2.50
2023-11-07T04:24:58.655Z,2.80
2023-11-07T04:27:25.524Z,3.00
2023-11-07T04:29:52.468Z,3.00
2023-11-07T04:32:20.122Z,3.00
2023-11-07T04:34:48.972Z,3.00
2023-11-07T04:37:16.225Z,3.10
2023-11-07T04:39:43.270Z,3.10
2023-11-07T04:42:10.247Z,2.60
2023-11-07T04:44:37.308Z,2.20
2023-11-07T04:47:06.401Z,2.30
2023-11-07T04:49:34.029Z,2.50
2023-11-07T04:52:03.232Z,2.10
2023-11-07T04:54:30.473Z,2.20
2023-11-07T04:56:58.977Z,2.30
2023-11-07T04:59:26.067Z,2.20
2023-11-07T05:01:54.286Z,2.30
2023-11-07T05:04:21.484Z,2.60
2023-11-07T05:06:48.886Z,2.70
2023-11-07T05:09:16.085Z,2.70
2023-11-07T05:11:43.091Z,2.80
2023-11-07T05:14:10.459Z,2.80
2023-11-07T05:16:42.953Z,2.60
2023-11-07T05:19:10.153Z,2.40
2023-11-07T05:21:37.833Z,2.40
2023-11-07T05:24:05.522Z,2.50
2023-11-07T05:26:32.784Z,2.40
2023-11-07T05:29:01.386Z,2.30
2023-11-07T05:31:28.286Z,2.30
2023-11-07T05:33:55.285Z,2.30
2023-11-07T05:36:22.387Z,2.30
2023-11-07T05:38:50.987Z,2.30
2023-11-07T05:41:19.457Z,2.20
2023-11-07T05:43:46.402Z,2.00
2023-11-07T05:46:13.529Z,1.90
2023-11-07T05:48:41.020Z,2.20
2023-11-07T05:51:08.659Z,2.40
2023-11-07T05:53:35.840Z,2.30
2023-11-07T05:56:03.070Z,2.40
2023-11-07T05:58:30.744Z,2.40
2023-11-07T06:00:58.750Z,2.40
2023-11-07T06:03:25.900Z,2.40
2023-11-07T06:05:53.147Z,2.40
2023-11-07T06:08:21.452Z,2.30
2023-11-07T06:10:48.994Z,2.00
2023-11-07T06:13:16.556Z,2.00
2023-11-07T06:15:43.474Z,2.20
2023-11-07T06:18:10.802Z,2.30
2023-11-07T06:20:37.973Z,2.40
2023-11-07T06:25:49.892Z,2.30
2023-11-07T06:28:17.150Z,2.40
2023-11-07T06:30:44.936Z,2.40
2023-11-07T06:33:36.907Z,2.40
2023-11-07T06:36:04.774Z,2.10
2023-11-07T06:42:20.634Z,2.10
2023-11-07T06:49:25.719Z,2.30
2023-11-07T06:51:53.881Z,2.30
2023-11-07T06:54:44.636Z,2.10
2023-11-07T06:57:11.855Z,2.30
2023-11-07T06:59:38.959Z,2.40
2023-11-07T07:06:04.973Z,2.70
2023-11-07T07:12:42.188Z,2.30
2023-11-07T07:22:54.873Z,2.90
2023-11-07T07:29:19.701Z,3.10
2023-11-07T07:31:46.544Z,3.20
2023-11-07T07:34:13.750Z,3.40
2023-11-07T07:40:15.973Z,3.70
2023-11-07T07:42:59.761Z,3.90
2023-11-07T07:57:43.275Z,4.50
2023-11-07T08:04:39.531Z,4.80
2023-11-07T08:11:58.295Z,5.30
2023-11-07T08:18:23.346Z,5.60
2023-11-07T08:29:01.969Z,6.10
2023-11-07T08:35:48.908Z,6.50
2023-11-07T10:03:37.872Z,11.40
2023-11-07T10:06:08.217Z,11.50
2023-11-07T10:08:37.954Z,11.70
2023-11-07T10:11:14.924Z,11.90
2023-11-07T10:14:04.131Z,11.80
2023-11-07T10:16:40.371Z,11.80
2023-11-07T10:19:08.860Z,12.00
2023-11-07T10:21:38.326Z,12.10
2023-11-07T10:24:07.136Z,12.30
2023-11-07T10:31:24.355Z,12.40
2023-11-07T10:33:51.745Z,12.50
2023-11-07T10:36:19.181Z,12.70
2023-11-07T10:38:48.566Z,12.60
2023-11-07T10:45:15.488Z,12.30
2023-11-07T10:48:18.548Z,12.40
2023-11-07T10:50:45.730Z,12.40
2023-11-07T10:53:13.266Z,12.40
2023-11-07T10:55:40.584Z,12.40
2023-11-07T11:05:45.334Z,12.40
2023-11-07T11:08:21.832Z,12.40
2023-11-07T11:10:51.920Z,12.40
2023-11-07T11:13:20.797Z,12.40
2023-11-07T11:16:11.503Z,12.40
2023-11-07T11:18:48.181Z,12.50
2023-11-07T11:21:33.247Z,12.70
2023-11-07T11:24:06.416Z,12.50
2023-11-07T11:26:41.680Z,12.50
2023-11-07T11:29:28.675Z,12.50
2023-11-07T11:32:18.770Z,12.40
2023-11-07T11:35:17.957Z,12.60
2023-11-07T11:38:15.166Z,12.50
2023-11-07T11:46:15.644Z,12.50
2023-11-07T11:48:52.497Z,12.60
2023-11-07T11:51:40.269Z,12.60
2023-11-07T11:54:09.096Z,13.00
2023-11-07T11:57:00.277Z,12.60
2023-11-07T11:59:58.045Z,12.80
2023-11-07T12:02:42.023Z,12.70
2023-11-07T12:05:22.627Z,12.60
2023-11-07T12:07:50.327Z,12.90
2023-11-07T12:10:20.561Z,12.90
2023-11-07T12:15:34.147Z,12.80
2023-11-07T12:21:15.710Z,13.40
2023-11-07T12:24:04.094Z,13.30
2023-11-07T12:29:57.251Z,12.40
2023-11-07T12:46:54.594Z,12.00
2023-11-07T12:52:13.693Z,12.00
2023-11-07T13:00:26.990Z,11.90
2023-11-07T13:08:04.160Z,11.90
2023-11-07T13:10:35.446Z,11.90
2023-11-07T13:13:02.460Z,11.80
2023-11-07T13:15:30.536Z,11.80
2023-11-07T13:18:00.965Z,11.90
2023-11-07T13:20:28.206Z,11.90
2023-11-07T13:23:00.599Z,12.00
2023-11-07T13:25:27.682Z,12.00
2023-11-07T13:27:54.833Z,12.00
2023-11-07T13:30:51.964Z,12.10
2023-11-07T13:39:31.533Z,12.10
2023-11-07T13:41:59.565Z,12.20
2023-11-07T13:47:05.076Z,12.30
2023-11-07T13:49:32.981Z,12.40
2023-11-07T13:52:05.484Z,12.20
2023-11-07T13:54:34.081Z,12.30
2023-11-07T13:57:01.927Z,12.20
2023-11-07T13:59:32.522Z,11.90
2023-11-07T14:02:01.153Z,11.80
2023-11-07T14:04:34.540Z,11.80
2023-11-07T14:07:02.667Z,11.70
2023-11-07T14:09:31.573Z,11.60
2023-11-07T14:12:04.732Z,11.60
2023-11-07T14:14:37.559Z,11.50
2023-11-07T14:17:15.311Z,11.50
2023-11-07T14:19:55.011Z,11.50
2023-11-07T14:22:32.072Z,11.50
2023-11-07T14:25:04.525Z,11.50
2023-11-07T14:27:58.917Z,11.60
2023-11-07T14:30:39.200Z,11.50
2023-11-07T14:33:13.293Z,11.60
2023-11-07T14:35:42.578Z,11.60
2023-11-07T14:38:27.087Z,11.50
2023-11-07T14:44:16.963Z,11.30
2023-11-07T14:50:37.889Z,11.20
2023-11-07T15:15:30.868Z,9.80
2023-11-07T15:18:12.527Z,9.70
2023-11-07T15:20:44.185Z,9.50
2023-11-07T15:23:22.786Z,9.40
2023-11-07T15:25:55.977Z,9.00
2023-11-07T15:28:24.697Z,8.90
2023-11-07T15:30:55.808Z,8.90
2023-11-07T15:33:25.210Z,8.90
2023-11-07T15:35:52.239Z,8.80
2023-11-07T15:42:19.812Z,8.50
2023-11-07T16:02:10.926Z,7.30
2023-11-07T16:04:37.945Z,7.30
2023-11-07T16:07:05.346Z,7.40
2023-11-07T16:09:32.513Z,7.60
2023-11-07T16:11:59.571Z,7.70
2023-11-07T16:14:32.751Z,7.50
2023-11-07T16:17:00.229Z,7.10
2023-11-07T16:19:28.385Z,7.00
2023-11-07T16:21:58.405Z,7.00
2023-11-07T16:28:31.004Z,6.70
2023-11-07T16:32:07.998Z,6.90
2023-11-07T16:34:35.780Z,6.70
2023-11-07T16:37:32.409Z,6.90
2023-11-07T16:40:02.915Z,6.90
2023-11-07T16:42:29.990Z,6.90
2023-11-07T16:44:57.120Z,7.00
2023-11-07T16:47:24.174Z,6.70
2023-11-07T16:49:51.604Z,6.70
2023-11-07T16:56:09.715Z,6.90
2023-11-07T16:58:36.925Z,7.00
2023-11-07T17:01:04.410Z,6.60
2023-11-07T17:03:32.783Z,6.40
2023-11-07T17:06:03.106Z,6.30
2023-11-07T17:08:44.399Z,6.30
2023-11-07T17:11:11.938Z,6.10
2023-11-07T17:14:40.560Z,6.00
2023-11-07T17:17:07.784Z,6.00
2023-11-07T17:19:35.108Z,5.90
2023-11-07T17:22:02.282Z,5.90
2023-11-07T17:24:34.037Z,6.00
2023-11-07T17:27:31.959Z,6.10
2023-11-07T17:30:11.454Z,6.20
2023-11-07T17:32:58.814Z,6.20
2023-11-07T17:35:26.281Z,6.00
2023-11-07T17:37:56.875Z,6.00
2023-11-07T17:40:24.179Z,6.20
2023-11-07T17:43:12.510Z,6.30
2023-11-07T17:49:51.421Z,6.00
2023-11-07T17:56:07.944Z,5.50
2023-11-07T17:58:41.016Z,5.70
2023-11-07T18:01:09.317Z,5.80
2023-11-07T18:03:37.142Z,5.90
2023-11-07T18:06:05.174Z,5.90
2023-11-07T18:08:32.670Z,6.10
2023-11-07T18:11:03.502Z,6.30
2023-11-07T18:13:38.591Z,6.40
2023-11-07T18:16:12.049Z,6.50
2023-11-07T18:29:55.630Z,6.60
2023-11-07T18:33:20.272Z,6.70
2023-11-07T18:36:30.440Z,6.70
2023-11-07T18:47:40.307Z,6.50
2023-11-07T18:55:18.233Z,6.20
2023-11-07T19:07:03.182Z,5.80
2023-11-07T19:17:36.505Z,5.60
2023-11-07T19:20:05.143Z,5.60
2023-11-07T19:22:34.163Z,5.60
2023-11-07T19:25:01.113Z,5.70
2023-11-07T19:27:28.720Z,5.90
2023-11-07T19:30:00.704Z,6.00
2023-11-07T19:41:12.707Z,5.80
2023-11-07T19:43:53.386Z,6.00
2023-11-07T19:50:30.803Z,5.90
2023-11-07T19:53:09.474Z,6.10
2023-11-07T19:55:46.645Z,6.20
2023-11-07T20:07:56.924Z,6.50
2023-11-07T20:20:16.316Z,6.50
2023-11-07T20:30:38.736Z,6.40
2023-11-07T20:54:48.252Z,6.30
2023-11-07T20:57:15.164Z,6.30
2023-11-07T20:59:45.348Z,6.30
2023-11-07T21:02:12.302Z,6.20
2023-11-07T21:04:39.228Z,6.20
2023-11-07T21:07:06.376Z,6.30
2023-11-07T21:09:33.352Z,6.30
2023-11-07T21:12:00.933Z,6.30
2023-11-07T21:14:27.897Z,6.40
2023-11-07T21:16:55.391Z,6.40
2023-11-07T21:19:23.322Z,6.50
2023-11-07T21:21:53.513Z,6.50
2023-11-07T21:24:20.823Z,6.30
2023-11-07T21:26:47.874Z,6.30
2023-11-07T21:29:14.778Z,6.30
2023-11-07T21:31:42.349Z,6.40
2023-11-07T21:34:09.632Z,6.50
2023-11-07T21:36:36.839Z,6.40
2023-11-07T21:39:04.530Z,6.30
2023-11-07T21:41:31.422Z,6.40
2023-11-07T21:43:58.367Z,6.50
2023-11-07T21:46:25.266Z,6.50
2023-11-07T21:48:52.233Z,6.50
2023-11-07T21:51:20.477Z,6.30
2023-11-07T21:53:47.583Z,6.40
2023-11-07T21:56:21.402Z,6.40
2023-11-07T21:58:48.356Z,6.50
2023-11-07T22:01:15.266Z,6.50
2023-11-07T22:03:42.167Z,6.50
2023-11-07T22:06:09.189Z,6.60
2023-11-07T22:08:36.877Z,6.50
2023-11-07T22:11:04.175Z,6.60
2023-11-07T22:13:31.154Z,6.40
2023-11-07T22:15:58.102Z,6.40
2023-11-07T22:18:25.426Z,6.50
2023-11-07T22:20:52.350Z,6.60
2023-11-07T22:23:19.282Z,6.60
2023-11-07T22:25:46.838Z,6.60
2023-11-07T22:28:13.731Z,6.60
2023-11-07T22:30:41.172Z,6.60
2023-11-07T22:33:08.541Z,6.60
2023-11-07T22:35:35.751Z,6.40
2023-11-07T22:38:04.355Z,6.30
2023-11-07T22:40:31.471Z,6.40
2023-11-07T22:42:58.342Z,6.40
2023-11-07T22:45:25.576Z,6.40
2023-11-07T22:47:52.764Z,6.40
2023-11-07T22:50:19.879Z,6.50
2023-11-07T22:52:47.619Z,6.40
2023-11-07T22:55:15.970Z,6.40
2023-11-07T22:57:44.914Z,6.40
2023-11-07T23:00:28.855Z,6.40
2023-11-07T23:03:03.485Z,6.20
2023-11-07T23:05:30.429Z,6.10
2023-11-07T23:07:57.253Z,6.20
2023-11-07T23:10:24.238Z,6.30
2023-11-07T23:12:51.122Z,6.30
2023-11-07T23:15:18.024Z,6.40
2023-11-07T23:17:46.048Z,6.40
2023-11-07T23:20:15.645Z,6.30
2023-11-07T23:22:43.086Z,6.30
2023-11-07T23:25:10.563Z,6.40
2023-11-07T23:27:37.572Z,6.50
2023-11-07T23:30:08.713Z,6.40
2023-11-07T23:32:37.190Z,6.40
2023-11-07T23:35:05.916Z,6.40
2023-11-07T23:37:33.097Z,6.50
2023-11-07T23:40:00.186Z,6.50
2023-11-07T23:42:27.249Z,6.50
2023-11-07T23:44:54.133Z,6.50
2023-11-07T23:47:21.039Z,6.50
2023-11-07T23:49:47.895Z,6.50
2023-11-07T23:52:15.006Z,6.40
2023-11-07T23:54:42.050Z,6.20
2023-11-07T23:57:08.906Z,6.30
2023-11-07T23:59:35.768Z,6.30
